CheckWX is a tool to help pilots better visualize weather data.  It is not intended as a substitute for an official pre-flight weather briefing.

04:41:36 UTC

MMCB TAF
General Mariano Matamoros Airport
Mexico
TAF MMCB 221614Z 2218/2318 19006KT P6SM SCT020 FM222100 23012KT P6SM BKN030CB TEMPO 2221/2301 VC RA FM230200 32005KT P6SM SCT030 BKN090 BECMG 2305/2306 00000KT SCT090 FM231200 00000KT 6SM HZ SCT020

Mar-22@
18:00 UTC

Mar-22 @ 18:00 UTC

Mar-22@
21:00 UTC

Mar-22 @ 21:00 UTC

TAF MMCB 221614Z 2218/2318 19006KT P6SM SCT020

Expired

Wind
  • 190° at 6 KTS
Cloud Levels
  • Scattered at 2,000' AGL

Mar-22@
21:00 UTC

Mar-22 @ 21:00 UTC

Mar-23@
01:00 UTC

Mar-23 @ 01:00 UTC

TEMPO 2221/2301 VC RA

Expired

Conditions
Rain

Mar-22@
21:00 UTC

Mar-22 @ 21:00 UTC

Mar-23@
02:00 UTC

Mar-23 @ 02:00 UTC

FM222100 23012KT P6SM BKN030CB

Expired

Wind
  • 230° at 12 KTS
Cloud Levels
  • Broken at 3,000' AGL

Mar-23@
02:00 UTC

Mar-23 @ 02:00 UTC

Mar-23@
05:00 UTC

Mar-23 @ 05:00 UTC

FM230200 32005KT P6SM SCT030 BKN090

From

From Standard forecast or significant change

Wind
  • 320° at 5 KTS
Cloud Levels
  • Scattered at 3,000' AGL
  • Broken at 9,000' AGL

Mar-23@
05:00 UTC

Mar-23 @ 05:00 UTC

Mar-23@
12:00 UTC

Mar-23 @ 12:00 UTC

BECMG 2305/2306 00000KT SCT090

Becoming

Becoming Conditions expected by Sat, Mar 23, 2019 @ 06:00 UTC

Cloud Levels
  • Scattered at 9,000' AGL

Mar-23@
12:00 UTC

Mar-23 @ 12:00 UTC

Mar-23@
18:00 UTC

Mar-23 @ 18:00 UTC

FM231200 00000KT 6SM HZ SCT020

From

From Standard forecast or significant change

Conditions
Haze
Cloud Levels
  • Scattered at 2,000' AGL